Time;durP1;ratioP1;P1;durP2;ratioP2;P2;SDS_P1;SDS_P2;PMS_P1;PMS_P2;Temp;Humidity;BMP_temperature;BMP_pressure;BME280_temperature;BME280_humidity;BME280_pressure;Samples;Min_cycle;Max_cycle;Signal;HPM_P1;HPM_P2
2023/01/05 00:01:06;;;;;;;;;;;;;;;12.09;100.00;100673.84;5070006;28;19936;-57
2023/01/05 00:03:32;;;;;;;;;;;;;;;12.10;100.00;100688.91;5079647;28;20395;-57
2023/01/05 00:05:58;;;;;;;;;;;;;;;12.10;100.00;100678.25;5077032;28;20097;-58
2023/01/05 00:08:23;;;;;;;;;;;;;;;12.17;100.00;100680.72;5088935;28;19937;-57
2023/01/05 00:24:28;;;;;;;;;;;;;;;12.16;100.00;100688.75;5091551;28;19943;-57
2023/01/05 00:26:54;;;;;;;;;;;;;;;12.10;100.00;100683.56;5078602;28;20021;-57
2023/01/05 00:29:19;;;;;;;;;;;;;;;12.08;100.00;100680.06;5070311;28;19967;-57
2023/01/05 00:31:45;;;;;;;;;;;;;;;12.03;100.00;100685.53;5074071;28;19950;-57
2023/01/05 00:34:10;;;;;;;;;;;;;;;12.01;100.00;100673.19;5090332;28;19935;-57
2023/01/05 00:36:35;;;;;;;;;;;;;;;12.01;100.00;100679.38;5089777;28;19971;-57
2023/01/05 00:39:01;;;;;;;;;;;;;;;12.00;100.00;100676.75;5081463;28;20426;-57
2023/01/05 00:41:26;;;;;;;;;;;;;;;12.01;100.00;100678.50;5071014;28;20805;-57
2023/01/05 00:43:51;;;;;;;;;;;;;;;12.03;100.00;100669.53;5073506;28;19949;-57
2023/01/05 00:46:16;;;;;;;;;;;;;;;12.05;100.00;100665.03;5070397;28;20429;-57
2023/01/05 00:48:42;;;;;;;;;;;;;;;12.10;100.00;100671.13;5071324;28;19931;-57
2023/01/05 00:51:07;;;;;;;;;;;;;;;12.12;100.00;100671.97;5069670;28;19934;-57
2023/01/05 00:53:32;;;;;;;;;;;;;;;12.04;100.00;100665.97;5069905;28;20054;-57
2023/01/05 00:55:58;;;;;;;;;;;;;;;12.11;100.00;100659.53;5073555;28;20356;-57
2023/01/05 00:58:23;;;;;;;;;;;;;;;12.13;100.00;100657.69;5070414;28;19929;-58
2023/01/05 01:00:49;;;;;;;;;;;;;;;12.14;100.00;100670.09;5074680;28;19944;-58
2023/01/05 01:03:14;;;;;;;;;;;;;;;12.14;100.00;100667.44;5089145;28;19948;-57
2023/01/05 01:05:39;;;;;;;;;;;;;;;12.10;100.00;100673.78;5090606;28;20017;-58
2023/01/05 01:08:04;;;;;;;;;;;;;;;12.14;100.00;100653.25;5090887;28;19940;-57
2023/01/05 01:10:30;;;;;;;;;;;;;;;12.16;100.00;100662.09;5083346;28;19947;-59
2023/01/05 01:12:55;;;;;;;;;;;;;;;12.15;100.00;100660.31;5070503;28;19937;-58
2023/01/05 01:15:20;;;;;;;;;;;;;;;12.22;100.00;100675.22;5071108;28;19938;-58
2023/01/05 01:17:45;;;;;;;;;;;;;;;12.22;100.00;100670.78;5070640;28;20352;-57
2023/01/05 01:20:11;;;;;;;;;;;;;;;12.26;100.00;100677.75;5072539;28;19956;-57
2023/01/05 01:22:36;;;;;;;;;;;;;;;12.27;100.00;100668.84;5070331;28;20005;-57
2023/01/05 01:25:02;;;;;;;;;;;;;;;12.29;100.00;100661.66;5073439;28;20380;-58
2023/01/05 01:27:28;;;;;;;;;;;;;;;12.30;100.00;100662.53;5092718;28;19938;-58
2023/01/05 01:29:53;;;;;;;;;;;;;;;12.26;100.00;100659.09;5094218;28;19935;-57
2023/01/05 01:32:19;;;;;;;;;;;;;;;12.26;100.00;100658.22;5094478;28;20053;-58
2023/01/05 01:34:44;;;;;;;;;;;;;;;12.29;100.00;100658.16;5084705;28;19944;-58
2023/01/05 01:37:10;;;;;;;;;;;;;;;12.31;100.00;100646.50;5074054;28;19937;-58
2023/01/05 01:39:35;;;;;;;;;;;;;;;12.33;100.00;100647.31;5076299;28;20441;-57
2023/01/05 01:42:00;;;;;;;;;;;;;;;12.35;100.00;100648.16;5074754;28;20038;-57
2023/01/05 01:44:44;;;;;;;;;;;;;;;12.36;100.00;100643.69;5074360;28;19969;-58
2023/01/05 01:47:29;;;;;;;;;;;;;;;12.35;100.00;100642.81;5074337;28;19978;-57
2023/01/05 01:49:57;;;;;;;;;;;;;;;12.33;100.00;100650.00;5081755;28;19942;-57
2023/01/05 01:52:23;;;;;;;;;;;;;;;12.38;100.00;100640.06;5093254;28;19958;-58
2023/01/05 01:54:50;;;;;;;;;;;;;;;12.37;100.00;100640.97;5093618;28;20462;-58
2023/01/05 01:57:17;;;;;;;;;;;;;;;12.42;100.00;100644.38;5092522;28;20256;-57
2023/01/05 01:59:43;;;;;;;;;;;;;;;12.43;100.00;100651.47;5077074;28;20349;-58
2023/01/05 02:02:09;;;;;;;;;;;;;;;12.44;100.00;100647.88;5073890;28;19953;-57
2023/01/05 02:04:36;;;;;;;;;;;;;;;12.48;100.00;100635.31;5091654;28;19999;-57
2023/01/05 02:07:01;;;;;;;;;;;;;;;12.54;100.00;100630.66;5091610;28;19938;-57
2023/01/05 02:09:27;;;;;;;;;;;;;;;12.53;100.00;100630.72;5091239;28;19941;-57
2023/01/05 02:12:05;;;;;;;;;;;;;;;12.52;100.00;100629.84;5094244;28;19928;-57
2023/01/05 02:14:33;;;;;;;;;;;;;;;12.52;100.00;100629.84;5076162;28;19947;-57
2023/01/05 02:17:16;;;;;;;;;;;;;;;12.52;100.00;100618.31;5094320;28;19934;-58
2023/01/05 02:20:20;;;;;;;;;;;;;;;12.54;100.00;100617.31;5093382;28;19942;-57
2023/01/05 02:23:04;;;;;;;;;;;;;;;12.57;100.00;100635.06;5013106;28;20419;-57
2023/01/05 02:25:35;;;;;;;;;;;;;;;12.54;100.00;100638.66;5089051;28;20555;-58
2023/01/05 02:28:19;;;;;;;;;;;;;;;12.61;100.00;100640.25;5095941;28;19973;-58
2023/01/05 02:30:58;;;;;;;;;;;;;;;12.60;100.00;100633.13;5090973;28;20052;-58
2023/01/05 02:33:42;;;;;;;;;;;;;;;12.60;100.00;100632.28;5092288;28;19939;-57
2023/01/05 02:36:39;;;;;;;;;;;;;;;12.58;100.00;100629.66;5091345;28;19930;-58
2023/01/05 02:39:10;;;;;;;;;;;;;;;12.61;100.00;100621.56;5037690;28;20395;-57
2023/01/05 02:41:55;;;;;;;;;;;;;;;12.52;100.00;100605.81;5072114;28;20003;-57
2023/01/05 02:44:20;;;;;;;;;;;;;;;12.39;100.00;100612.44;5076932;28;19939;-57
2023/01/05 02:46:45;;;;;;;;;;;;;;;12.40;100.00;100619.56;5092989;28;19937;-57
2023/01/05 02:49:13;;;;;;;;;;;;;;;12.43;100.00;100619.47;5085974;28;19950;-57
2023/01/05 02:51:40;;;;;;;;;;;;;;;12.37;100.00;100608.94;5072730;28;19976;-57
2023/01/05 02:54:11;;;;;;;;;;;;;;;12.42;100.00;100607.00;5072214;28;19935;-58
2023/01/05 02:56:43;;;;;;;;;;;;;;;12.42;100.00;100607.00;5075104;28;20019;-58
2023/01/05 02:59:22;;;;;;;;;;;;;;;12.46;100.00;100594.47;5072964;28;19975;-57
2023/01/05 03:01:50;;;;;;;;;;;;;;;12.47;100.00;100594.41;5081958;28;19963;-57
2023/01/05 03:04:48;;;;;;;;;;;;;;;12.46;100.00;100598.00;5094200;28;19960;-57
2023/01/05 03:07:17;;;;;;;;;;;;;;;12.48;100.00;100592.63;5035970;28;19931;-58
2023/01/05 03:09:43;;;;;;;;;;;;;;;12.56;100.00;100593.25;5089343;28;19943;-57
2023/01/05 03:15:25;;;;;;;;;;;;;;;12.59;100.00;100594.03;5091607;28;20433;-57
2023/01/05 03:17:53;;;;;;;;;;;;;;;12.59;100.00;100599.38;5090645;28;19936;-57
2023/01/05 03:20:20;;;;;;;;;;;;;;;12.62;100.00;100598.41;5091898;28;19933;-57
2023/01/05 03:36:42;;;;;;;;;;;;;;;12.67;100.00;100594.66;5071348;28;19944;-57
2023/01/05 03:39:08;;;;;;;;;;;;;;;12.72;100.00;100610.53;5071082;28;20334;-57
2023/01/05 03:41:35;;;;;;;;;;;;;;;12.74;100.00;100614.91;5070668;28;19954;-57
2023/01/05 03:44:00;;;;;;;;;;;;;;;12.72;100.00;100611.41;5073187;28;19979;-57
2023/01/05 03:46:28;;;;;;;;;;;;;;;12.72;100.00;100611.41;5071612;28;19931;-57
2023/01/05 03:48:54;;;;;;;;;;;;;;;12.78;100.00;100605.00;5071525;28;19932;-57
2023/01/05 03:51:19;;;;;;;;;;;;;;;12.77;100.00;100609.47;5072429;28;19935;-57
2023/01/05 03:53:44;;;;;;;;;;;;;;;12.76;100.00;100607.72;5087908;28;20584;-57
2023/01/05 03:56:10;;;;;;;;;;;;;;;12.82;100.00;100606.63;5091228;28;20021;-57
2023/01/05 03:58:35;;;;;;;;;;;;;;;12.77;100.00;100609.47;5080701;28;20437;-57
2023/01/05 04:01:00;;;;;;;;;;;;;;;12.78;100.00;100616.53;5070157;28;19936;-57
2023/01/05 04:03:25;;;;;;;;;;;;;;;12.78;100.00;100621.88;5079093;28;19952;-58
2023/01/05 04:05:51;;;;;;;;;;;;;;;12.78;100.00;100632.56;5090331;28;20299;-57
2023/01/05 04:08:16;;;;;;;;;;;;;;;12.76;100.00;100634.44;5077281;28;19936;-58
2023/01/05 04:10:41;;;;;;;;;;;;;;;12.75;100.00;100637.16;5070584;28;19937;-57
2023/01/05 04:13:07;;;;;;;;;;;;;;;12.71;100.00;100636.38;5072909;28;20387;-57
2023/01/05 04:15:32;;;;;;;;;;;;;;;12.73;100.00;100634.53;5071678;28;20349;-57
2023/01/05 04:17:57;;;;;;;;;;;;;;;12.72;100.00;100626.53;5071113;28;20010;-57
2023/01/05 04:20:22;;;;;;;;;;;;;;;12.68;100.00;100633.78;5073717;28;19947;-57
2023/01/05 04:22:48;;;;;;;;;;;;;;;12.68;100.00;100635.59;5093107;28;20352;-57
2023/01/05 04:25:13;;;;;;;;;;;;;;;12.67;100.00;100634.69;5108533;28;19975;-57
2023/01/05 04:27:38;;;;;;;;;;;;;;;12.68;100.00;100633.78;5106542;28;19938;-57
2023/01/05 04:30:04;;;;;;;;;;;;;;;12.69;100.00;100630.19;5073249;28;20010;-57
2023/01/05 04:32:29;;;;;;;;;;;;;;;12.79;100.00;100646.78;5071951;28;20032;-57
2023/01/05 04:34:54;;;;;;;;;;;;;;;12.69;100.00;100651.56;5087170;28;19944;-57
2023/01/05 04:37:19;;;;;;;;;;;;;;;12.66;100.00;100658.78;5090417;28;20444;-57
2023/01/05 04:39:45;;;;;;;;;;;;;;;12.63;100.00;100665.09;5088428;28;19968;-57
2023/01/05 04:42:10;;;;;;;;;;;;;;;12.62;100.00;100663.31;5091162;28;19956;-57
2023/01/05 04:44:35;;;;;;;;;;;;;;;12.56;100.00;100676.88;5091210;28;19943;-57
2023/01/05 04:47:00;;;;;;;;;;;;;;;12.49;100.00;100667.28;5076930;28;19974;-57
2023/01/05 04:49:26;;;;;;;;;;;;;;;12.48;100.00;100675.34;5069931;28;20282;-58
2023/01/05 04:51:51;;;;;;;;;;;;;;;12.47;100.00;100671.78;5068882;28;19959;-58
2023/01/05 04:54:16;;;;;;;;;;;;;;;12.43;100.00;100671.94;5068809;28;19929;-58
2023/01/05 04:56:42;;;;;;;;;;;;;;;12.44;100.00;100673.66;5071348;28;19940;-58
2023/01/05 04:59:07;;;;;;;;;;;;;;;12.43;100.00;100677.28;5072732;28;19928;-58
2023/01/05 05:01:32;;;;;;;;;;;;;;;12.42;100.00;100687.06;5083600;28;19934;-58
2023/01/05 05:03:58;;;;;;;;;;;;;;;12.40;100.00;100682.69;5086526;28;19938;-57
2023/01/05 05:06:23;;;;;;;;;;;;;;;12.36;100.00;100700.59;5095310;28;20045;-58
2023/01/05 05:08:48;;;;;;;;;;;;;;;12.37;100.00;100704.13;5091358;28;19940;-57
2023/01/05 05:11:13;;;;;;;;;;;;;;;12.35;100.00;100701.53;5075102;28;19931;-58
2023/01/05 05:13:39;;;;;;;;;;;;;;;12.36;100.00;100697.91;5074671;28;19928;-58
2023/01/05 05:16:04;;;;;;;;;;;;;;;12.28;100.00;100694.59;5075202;28;19987;-58
2023/01/05 05:18:29;;;;;;;;;;;;;;;12.24;100.00;100687.59;5080540;28;19952;-58
2023/01/05 05:20:55;;;;;;;;;;;;;;;12.27;100.00;100698.19;5080344;28;19945;-58
2023/01/05 05:23:20;;;;;;;;;;;;;;;12.28;100.00;100710.59;5074754;28;20017;-58
2023/01/05 05:25:50;;;;;;;;;;;;;;;12.25;100.00;100710.69;5077333;28;19937;-57
2023/01/05 05:28:15;;;;;;;;;;;;;;;12.26;100.00;100722.22;5074652;28;19974;-58
2023/01/05 05:30:40;;;;;;;;;;;;;;;12.27;100.00;100711.53;5076674;28;19960;-57
2023/01/05 05:33:05;;;;;;;;;;;;;;;12.32;100.00;100720.25;5080017;28;20025;-58
2023/01/05 05:35:31;;;;;;;;;;;;;;;12.34;100.00;100713.09;5094956;28;19927;-57
2023/01/05 05:37:56;;;;;;;;;;;;;;;12.31;100.00;100709.63;5090357;28;19933;-57
2023/01/05 05:40:21;;;;;;;;;;;;;;;12.34;100.00;100725.56;5089874;28;19916;-58
2023/01/05 05:42:47;;;;;;;;;;;;;;;12.36;100.00;100735.28;5074107;28;19955;-58
2023/01/05 05:45:12;;;;;;;;;;;;;;;12.37;100.00;100747.69;5074487;28;19949;-58
2023/01/05 05:47:37;;;;;;;;;;;;;;;12.39;100.00;100743.19;5076240;28;19952;-57
2023/01/05 05:50:03;;;;;;;;;;;;;;;12.36;100.00;100745.94;5073913;28;20294;-57
2023/01/05 05:52:28;;;;;;;;;;;;;;;12.39;100.00;100737.84;5075630;28;20000;-57
2023/01/05 05:54:53;;;;;;;;;;;;;;;12.34;100.00;100731.75;5073534;28;19943;-57
2023/01/05 05:57:19;;;;;;;;;;;;;;;12.39;100.00;100729.84;5072991;28;20020;-57
2023/01/05 05:59:44;;;;;;;;;;;;;;;12.41;100.00;100738.69;5075290;28;19936;-58
2023/01/05 06:02:09;;;;;;;;;;;;;;;12.47;100.00;100742.97;5086382;28;20309;-57
2023/01/05 06:04:34;;;;;;;;;;;;;;;12.47;100.00;100743.84;5093262;28;19954;-57
2023/01/05 06:07:00;;;;;;;;;;;;;;;12.47;100.00;100749.16;5089815;28;19931;-57
2023/01/05 06:09:25;;;;;;;;;;;;;;;12.39;100.00;100745.84;5094366;28;20356;-57
2023/01/05 06:11:50;;;;;;;;;;;;;;;12.35;100.00;100754.88;5093912;28;19985;-57
2023/01/05 06:14:16;;;;;;;;;;;;;;;12.35;100.00;100760.22;5089026;28;19961;-57
2023/01/05 06:16:41;;;;;;;;;;;;;;;12.36;100.00;100761.94;5093578;28;19931;-57
2023/01/05 06:19:08;;;;;;;;;;;;;;;12.30;100.00;100767.47;5090600;28;19916;-57
2023/01/05 06:21:33;;;;;;;;;;;;;;;12.28;100.00;100763.97;5073355;28;19927;-57
2023/01/05 06:23:58;;;;;;;;;;;;;;;12.24;100.00;100772.09;5073736;28;19930;-57
2023/01/05 06:26:24;;;;;;;;;;;;;;;12.20;100.00;100770.41;5080860;28;19970;-57
2023/01/05 06:28:49;;;;;;;;;;;;;;;12.22;100.00;100749.91;5093802;28;20028;-57
2023/01/05 06:31:14;;;;;;;;;;;;;;;12.22;100.00;100758.81;5093421;28;20014;-57
2023/01/05 06:33:39;;;;;;;;;;;;;;;12.23;100.00;100765.88;5093307;28;19931;-57
2023/01/05 06:36:05;;;;;;;;;;;;;;;12.27;100.00;100772.00;5092945;28;19951;-57
2023/01/05 06:38:30;;;;;;;;;;;;;;;12.23;100.00;100776.53;5091084;28;19937;-57
2023/01/05 06:40:56;;;;;;;;;;;;;;;12.24;100.00;100772.94;5093505;28;19967;-57
2023/01/05 06:43:23;;;;;;;;;;;;;;;12.27;100.00;100777.34;5084429;28;19963;-57
2023/01/05 06:45:48;;;;;;;;;;;;;;;12.26;100.00;100771.13;5073379;28;19993;-57
2023/01/05 06:48:14;;;;;;;;;;;;;;;12.23;100.00;100776.53;5072990;28;19954;-58
2023/01/05 06:50:39;;;;;;;;;;;;;;;12.24;100.00;100782.75;5075240;28;19936;-57
2023/01/05 06:53:04;;;;;;;;;;;;;;;12.23;100.00;100791.66;5074653;28;19959;-57
2023/01/05 06:55:29;;;;;;;;;;;;;;;12.25;100.00;100800.50;5089131;28;19932;-57
2023/01/05 06:57:55;;;;;;;;;;;;;;;12.23;100.00;100803.22;5092895;28;19935;-57
2023/01/05 07:00:20;;;;;;;;;;;;;;;12.21;100.00;100801.53;5093041;28;19926;-57
2023/01/05 07:02:45;;;;;;;;;;;;;;;12.25;100.00;100814.72;5088242;28;19962;-57
2023/01/05 07:05:11;;;;;;;;;;;;;;;12.25;100.00;100814.72;5092870;28;19943;-57
2023/01/05 07:07:36;;;;;;;;;;;;;;;12.28;100.00;100817.31;5090728;28;20320;-57
2023/01/05 07:10:01;;;;;;;;;;;;;;;12.31;100.00;100816.34;5072573;28;19929;-57
2023/01/05 07:12:27;;;;;;;;;;;;;;;12.30;100.00;100815.47;5072580;28;19968;-57
2023/01/05 07:14:52;;;;;;;;;;;;;;;12.31;100.00;100816.34;5074235;28;19981;-57
2023/01/05 07:17:18;;;;;;;;;;;;;;;12.30;100.00;100822.59;5071013;28;19953;-57
2023/01/05 07:19:43;;;;;;;;;;;;;;;12.32;100.00;100829.63;5072624;28;19929;-58
2023/01/05 07:22:08;;;;;;;;;;;;;;;12.29;100.00;100840.38;5070609;28;19946;-57
2023/01/05 07:24:33;;;;;;;;;;;;;;;12.22;100.00;100833.47;5069801;28;19922;-57
2023/01/05 07:26:59;;;;;;;;;;;;;;;12.26;100.00;100832.47;5082699;28;20353;-57
2023/01/05 07:29:24;;;;;;;;;;;;;;;12.26;100.00;100827.13;5090809;28;20007;-57
2023/01/05 07:31:51;;;;;;;;;;;;;;;12.28;100.00;100827.97;5087782;28;19953;-57
2023/01/05 07:34:19;;;;;;;;;;;;;;;12.28;100.00;100838.66;5086567;28;19965;-58
2023/01/05 07:36:45;;;;;;;;;;;;;;;12.21;100.00;100834.38;5089972;28;19923;-58
2023/01/05 07:39:10;;;;;;;;;;;;;;;12.32;100.00;100836.78;5090211;28;19929;-57
2023/01/05 07:41:35;;;;;;;;;;;;;;;12.37;100.00;100842.88;5083266;28;20614;-57
2023/01/05 07:44:01;;;;;;;;;;;;;;;12.34;100.00;100835.81;5071307;28;19926;-57
2023/01/05 07:46:29;;;;;;;;;;;;;;;12.35;100.00;100844.69;5071647;28;19938;-58
2023/01/05 07:48:54;;;;;;;;;;;;;;;12.34;100.00;100842.94;5071820;28;19936;-57
2023/01/05 07:51:21;;;;;;;;;;;;;;;12.36;100.00;100847.31;5071130;28;19945;-57
2023/01/05 07:53:46;;;;;;;;;;;;;;;12.44;100.00;100861.31;5072338;28;19936;-57
2023/01/05 07:56:12;;;;;;;;;;;;;;;12.48;100.00;100855.00;5071207;28;19927;-57
2023/01/05 07:58:37;;;;;;;;;;;;;;;12.47;100.00;100871.91;5073829;28;19933;-58
2023/01/05 08:01:06;;;;;;;;;;;;;;;12.51;100.00;100870.94;5071820;28;20041;-58
2023/01/05 08:03:32;;;;;;;;;;;;;;;12.49;100.00;100870.09;5080508;28;19948;-58
2023/01/05 08:05:57;;;;;;;;;;;;;;;12.56;100.00;100870.78;5077896;28;19999;-57
2023/01/05 08:08:22;;;;;;;;;;;;;;;12.56;100.00;100874.34;5071823;28;19964;-58
2023/01/05 08:10:48;;;;;;;;;;;;;;;12.63;100.00;100873.28;5073864;28;19936;-58
2023/01/05 08:15:59;;;;;;;;;;;;;;;12.70;100.00;100871.31;5071448;28;19958;-57
2023/01/05 08:18:24;;;;;;;;;;;;;;;12.74;100.00;100864.94;5071477;28;19935;-57
2023/01/05 08:20:51;;;;;;;;;;;;;;;12.83;100.00;100870.91;5073710;28;19941;-58
2023/01/05 08:23:17;;;;;;;;;;;;;;;12.84;100.00;100864.66;5078905;28;20287;-57
2023/01/05 08:25:42;;;;;;;;;;;;;;;12.88;100.00;100874.31;5076072;28;19926;-58
2023/01/05 08:28:07;;;;;;;;;;;;;;;12.92;100.00;100876.00;5106890;28;20013;-57
2023/01/05 08:30:32;;;;;;;;;;;;;;;12.97;100.00;100868.72;5076684;28;19941;-58
2023/01/05 08:32:58;;;;;;;;;;;;;;;13.02;100.00;100866.84;5074886;28;19929;-57
2023/01/05 08:35:23;;;;;;;;;;;;;;;13.06;100.00;100879.16;5087341;28;20324;-58
2023/01/05 08:37:48;;;;;;;;;;;;;;;13.15;100.00;100888.72;5091593;28;20015;-57
2023/01/05 08:40:13;;;;;;;;;;;;;;;13.13;100.00;100887.88;5089798;28;19928;-58
2023/01/05 08:42:39;;;;;;;;;;;;;;;13.09;100.00;100884.44;5073496;28;19953;-57
2023/01/05 08:45:05;;;;;;;;;;;;;;;13.11;100.00;100882.56;5070746;28;19950;-58
2023/01/05 08:47:30;;;;;;;;;;;;;;;13.20;100.00;100893.00;5073213;28;19999;-57
2023/01/05 08:49:55;;;;;;;;;;;;;;;13.21;100.00;100900.09;5070579;28;20324;-58
2023/01/05 08:52:22;;;;;;;;;;;;;;;13.26;99.71;100897.31;5071538;28;20042;-57
2023/01/05 08:54:47;;;;;;;;;;;;;;;13.24;97.90;100907.16;5072969;28;19920;-58
2023/01/05 08:57:13;;;;;;;;;;;;;;;13.28;98.71;100905.28;5071183;28;20433;-58
2023/01/05 08:59:39;;;;;;;;;;;;;;;13.24;97.70;100899.16;5075349;28;20281;-57
2023/01/05 09:02:05;;;;;;;;;;;;;;;13.32;96.04;100912.28;5072514;28;20010;-57
2023/01/05 09:04:30;;;;;;;;;;;;;;;13.39;95.60;100924.53;5087249;28;19951;-58
2023/01/05 09:06:55;;;;;;;;;;;;;;;13.48;95.43;100919.78;5086326;28;20007;-58
2023/01/05 09:09:23;;;;;;;;;;;;;;;13.59;95.87;100924.81;5089966;28;20386;-57
2023/01/05 09:11:48;;;;;;;;;;;;;;;13.66;94.60;100929.91;5078192;28;19934;-57
2023/01/05 09:14:14;;;;;;;;;;;;;;;13.60;93.08;100939.94;5070045;28;19930;-58
2023/01/05 09:16:39;;;;;;;;;;;;;;;13.60;92.61;100932.78;5072899;28;19927;-57
2023/01/05 09:19:05;;;;;;;;;;;;;;;13.57;92.02;100929.31;5070461;28;20019;-57
2023/01/05 09:21:30;;;;;;;;;;;;;;;13.55;90.88;100931.16;5071038;28;19977;-58
2023/01/05 09:23:56;;;;;;;;;;;;;;;13.58;90.68;100929.28;5072991;28;19935;-57
2023/01/05 09:26:21;;;;;;;;;;;;;;;13.51;89.96;100925.03;5070346;28;19935;-58
2023/01/05 09:28:46;;;;;;;;;;;;;;;13.54;89.70;100932.94;5070707;28;19927;-58
2023/01/05 09:31:19;;;;;;;;;;;;;;;13.52;88.63;100933.94;5071021;28;19923;-57
2023/01/05 09:33:44;;;;;;;;;;;;;;;13.58;89.44;100941.75;5086848;28;19926;-58
2023/01/05 09:36:10;;;;;;;;;;;;;;;13.57;88.46;100940.91;5091020;28;20013;-58
2023/01/05 09:38:36;;;;;;;;;;;;;;;13.63;89.08;100947.84;5080377;28;19935;-57
2023/01/05 09:41:15;;;;;;;;;;;;;;;13.69;89.62;100950.34;5070463;28;19913;-57
2023/01/05 09:43:41;;;;;;;;;;;;;;;13.73;89.67;100946.66;5072400;28;19924;-58
2023/01/05 09:46:12;;;;;;;;;;;;;;;13.75;89.73;100945.69;5076454;28;19986;-57
2023/01/05 09:48:42;;;;;;;;;;;;;;;13.76;89.45;100947.44;5093501;28;19936;-57
2023/01/05 09:51:08;;;;;;;;;;;;;;;13.78;89.79;100952.72;5079212;28;19931;-58
2023/01/05 09:53:34;;;;;;;;;;;;;;;13.76;88.26;100951.91;5074106;28;20101;-57
2023/01/05 09:56:02;;;;;;;;;;;;;;;13.86;88.26;100956.03;5077622;28;19977;-57
2023/01/05 09:58:30;;;;;;;;;;;;;;;13.91;87.57;100943.41;5094010;28;20020;-58
2023/01/05 10:01:01;;;;;;;;;;;;;;;13.98;87.35;100947.66;5093956;28;19948;-58
2023/01/05 10:03:27;;;;;;;;;;;;;;;14.12;87.59;100948.06;5084579;28;20025;-58
2023/01/05 10:05:53;;;;;;;;;;;;;;;14.17;86.31;100949.69;5094273;28;19944;-57
2023/01/05 10:08:32;;;;;;;;;;;;;;;14.34;85.61;100944.69;5086207;28;19930;-57
2023/01/05 10:14:09;;;;;;;;;;;;;;;14.50;85.03;100943.25;5073952;28;19930;-58
2023/01/05 10:16:34;;;;;;;;;;;;;;;14.53;84.81;100936.91;5074936;28;19994;-57
2023/01/05 10:19:00;;;;;;;;;;;;;;;14.55;83.98;100928.84;5092117;28;19973;-58
2023/01/05 10:21:29;;;;;;;;;;;;;;;14.55;83.28;100932.38;5091743;28;19930;-58
2023/01/05 10:24:03;;;;;;;;;;;;;;;14.39;82.37;100925.78;5080508;28;20030;-58
2023/01/05 10:26:51;;;;;;;;;;;;;;;14.44;82.30;100916.69;5082813;28;19932;-58
2023/01/05 10:29:40;;;;;;;;;;;;;;;14.46;82.50;100916.66;5077270;28;19933;-58
2023/01/05 10:32:14;;;;;;;;;;;;;;;14.58;82.25;100923.38;5084872;28;19935;-58
2023/01/05 10:34:43;;;;;;;;;;;;;;;14.59;82.07;100920.66;5093542;28;19957;-58
2023/01/05 10:37:23;;;;;;;;;;;;;;;14.70;82.10;100913.09;5093545;28;20011;-58
2023/01/05 10:39:53;;;;;;;;;;;;;;;14.81;81.42;100910.06;5090395;28;19983;-58
2023/01/05 10:42:34;;;;;;;;;;;;;;;14.91;80.59;100906.13;5093120;28;20040;-58
2023/01/05 10:45:03;;;;;;;;;;;;;;;15.00;79.93;100914.69;5092798;28;19958;-58
2023/01/05 10:47:30;;;;;;;;;;;;;;;15.03;79.56;100908.34;5087269;28;19935;-58
2023/01/05 10:49:57;;;;;;;;;;;;;;;15.10;79.95;100910.75;5071977;28;19965;-58
2023/01/05 10:52:22;;;;;;;;;;;;;;;14.98;80.17;100902.28;5083696;28;20004;-58
2023/01/05 10:54:51;;;;;;;;;;;;;;;15.13;79.43;100918.69;5092545;28;19932;-58
2023/01/05 10:57:30;;;;;;;;;;;;;;;15.42;78.67;100907.75;5081771;28;20601;-58
2023/01/05 11:00:07;;;;;;;;;;;;;;;15.50;78.33;100905.66;5072729;28;19928;-58
2023/01/05 11:02:34;;;;;;;;;;;;;;;15.62;77.30;100899.84;5073891;28;19947;-58
2023/01/05 11:05:04;;;;;;;;;;;;;;;15.53;77.40;100897.50;5092706;28;20428;-58
2023/01/05 11:07:30;;;;;;;;;;;;;;;15.43;77.07;100898.81;5089399;28;20295;-58
2023/01/05 11:09:55;;;;;;;;;;;;;;;15.41;77.08;100900.66;5092898;28;19912;-58
2023/01/05 11:12:22;;;;;;;;;;;;;;;15.57;78.29;100907.19;5084428;28;20555;-58
2023/01/05 11:14:57;;;;;;;;;;;;;;;15.51;76.76;100898.50;5071942;28;19930;-58
2023/01/05 11:17:24;;;;;;;;;;;;;;;15.51;76.46;100910.09;5072624;28;19954;-58
2023/01/05 11:19:51;;;;;;;;;;;;;;;15.51;75.24;100898.50;5072801;28;20002;-58
2023/01/05 11:22:32;;;;;;;;;;;;;;;15.52;75.30;100901.13;5075065;28;20390;-58
2023/01/05 11:25:14;;;;;;;;;;;;;;;15.47;74.08;100897.75;5072567;28;19933;-58
2023/01/05 11:27:39;;;;;;;;;;;;;;;15.49;74.70;100895.88;5074091;28;19932;-58
2023/01/05 11:30:13;;;;;;;;;;;;;;;15.58;74.50;100895.50;5072402;28;19936;-58
2023/01/05 11:32:39;;;;;;;;;;;;;;;15.62;75.38;100907.00;5074610;28;19932;-58
2023/01/05 11:35:16;;;;;;;;;;;;;;;15.58;74.12;100916.09;5092194;28;19929;-58
2023/01/05 11:37:42;;;;;;;;;;;;;;;15.47;75.10;100902.22;5091667;28;20035;-58
2023/01/05 11:40:14;;;;;;;;;;;;;;;15.46;73.96;100905.84;5087358;28;19949;-58
2023/01/05 11:42:42;;;;;;;;;;;;;;;15.52;74.30;100910.97;5090177;28;19971;-58
2023/01/05 11:45:16;;;;;;;;;;;;;;;15.51;75.81;100903.88;5083346;28;20025;-59
2023/01/05 11:47:52;;;;;;;;;;;;;;;15.44;74.82;100905.91;5069643;28;19948;-58
2023/01/05 11:50:23;;;;;;;;;;;;;;;15.46;74.47;100909.41;5069864;28;19931;-58
2023/01/05 11:52:59;;;;;;;;;;;;;;;15.48;74.30;100910.22;5087984;28;20517;-58
2023/01/05 11:55:29;;;;;;;;;;;;;;;15.48;75.55;100920.06;5091740;28;19942;-58
2023/01/05 11:57:58;;;;;;;;;;;;;;;15.59;74.87;100915.16;5081406;28;20006;-58
2023/01/05 12:00:25;;;;;;;;;;;;;;;15.50;75.25;100911.03;5071848;28;19925;-58
2023/01/05 12:03:09;;;;;;;;;;;;;;;15.52;74.78;100909.16;5082402;28;19951;-58
2023/01/05 12:05:53;;;;;;;;;;;;;;;15.63;75.30;100898.03;5089612;28;20443;-58
2023/01/05 12:08:37;;;;;;;;;;;;;;;15.72;75.63;100901.22;5091883;28;20015;-58
2023/01/05 12:11:05;;;;;;;;;;;;;;;15.80;74.37;100896.41;5088269;28;19932;-58
2023/01/05 12:13:37;;;;;;;;;;;;;;;15.86;73.65;100899.78;5072163;28;19949;-58
2023/01/05 12:16:05;;;;;;;;;;;;;;;15.76;72.04;100896.63;5071637;28;19929;-58
2023/01/05 12:18:49;;;;;;;;;;;;;;;15.73;71.98;100894.06;5071686;28;19930;-58
2023/01/05 12:21:15;;;;;;;;;;;;;;;15.65;72.03;100897.03;5073921;28;19961;-58
2023/01/05 12:23:48;;;;;;;;;;;;;;;15.62;72.28;100897.16;5073775;28;20525;-58
2023/01/05 12:26:25;;;;;;;;;;;;;;;15.52;72.32;100901.13;5084746;28;19930;-58
2023/01/05 12:29:05;;;;;;;;;;;;;;;15.52;73.36;100898.44;5078317;28;19937;-58
2023/01/05 12:32:00;;;;;;;;;;;;;;;15.44;72.77;100902.34;5081786;28;19916;-58
2023/01/05 12:34:25;;;;;;;;;;;;;;;15.37;73.16;100901.66;5018889;28;19935;-58
2023/01/05 12:37:06;;;;;;;;;;;;;;;15.34;74.30;100901.78;5089838;28;19953;-57
2023/01/05 12:39:49;;;;;;;;;;;;;;;15.32;74.80;100900.97;5091885;28;20319;-58
2023/01/05 12:42:17;;;;;;;;;;;;;;;15.37;74.85;100901.66;5091545;28;19949;-58
2023/01/05 12:44:56;;;;;;;;;;;;;;;15.27;74.55;100902.94;5091342;28;20335;-58
2023/01/05 12:47:27;;;;;;;;;;;;;;;15.27;74.28;100910.13;5080866;28;20046;-58
2023/01/05 12:50:05;;;;;;;;;;;;;;;15.13;73.05;100907.97;5071352;28;20029;-58
2023/01/05 12:52:34;;;;;;;;;;;;;;;15.23;74.28;100908.50;5070930;28;20501;-58
2023/01/05 12:55:12;;;;;;;;;;;;;;;15.18;73.35;100907.78;5071378;28;19949;-58
2023/01/05 12:57:57;;;;;;;;;;;;;;;15.19;73.20;100912.22;5073987;28;19936;-58
2023/01/05 13:00:24;;;;;;;;;;;;;;;15.13;72.89;100907.97;5088292;28;19926;-58
2023/01/05 13:02:56;;;;;;;;;;;;;;;15.09;72.44;100906.31;5081961;28;19952;-58
2023/01/05 13:05:33;;;;;;;;;;;;;;;15.14;71.88;100907.00;5090440;28;20211;-58
2023/01/05 13:07:58;;;;;;;;;;;;;;;15.10;72.46;100910.75;5085931;28;19982;-58
2023/01/05 13:10:27;;;;;;;;;;;;;;;15.03;70.91;100911.91;5071138;28;19958;-58
2023/01/05 13:12:57;;;;;;;;;;;;;;;14.97;72.85;100912.13;5071125;28;20075;-58